sensor_id;sensor_type;location;lat;lon;timestamp;P1;durP1;ratioP1;P2;durP2;ratioP2
28028;SDS011;15345;59.364;18.016;2023-06-19T00:00:12;12.18;;;11.15;;
28028;SDS011;15345;59.364;18.016;2023-06-19T00:01:31;12.63;;;11.43;;
28028;SDS011;15345;59.364;18.016;2023-06-19T00:02:50;12.13;;;11.05;;
28028;SDS011;15345;59.364;18.016;2023-06-19T00:04:10;12.50;;;11.35;;
28028;SDS011;15345;59.364;18.016;2023-06-19T00:05:29;14.20;;;12.80;;
28028;SDS011;15345;59.364;18.016;2023-06-19T00:06:50;14.68;;;13.13;;
28028;SDS011;15345;59.364;18.016;2023-06-19T00:08:09;14.60;;;13.10;;
28028;SDS011;15345;59.364;18.016;2023-06-19T00:09:28;13.35;;;12.00;;
28028;SDS011;15345;59.364;18.016;2023-06-19T00:10:48;16.75;;;14.95;;
28028;SDS011;15345;59.364;18.016;2023-06-19T00:12:07;16.73;;;15.07;;
28028;SDS011;15345;59.364;18.016;2023-06-19T00:13:25;16.45;;;14.85;;
28028;SDS011;15345;59.364;18.016;2023-06-19T00:14:44;16.30;;;14.60;;
28028;SDS011;15345;59.364;18.016;2023-06-19T00:16:03;16.90;;;15.20;;
28028;SDS011;15345;59.364;18.016;2023-06-19T00:17:22;17.75;;;15.95;;
28028;SDS011;15345;59.364;18.016;2023-06-19T00:18:45;19.13;;;17.08;;
28028;SDS011;15345;59.364;18.016;2023-06-19T00:20:04;18.10;;;15.63;;
28028;SDS011;15345;59.364;18.016;2023-06-19T00:21:24;18.88;;;16.73;;
28028;SDS011;15345;59.364;18.016;2023-06-19T00:22:44;20.38;;;16.92;;
28028;SDS011;15345;59.364;18.016;2023-06-19T00:24:03;18.55;;;16.70;;
28028;SDS011;15345;59.364;18.016;2023-06-19T00:25:22;18.27;;;16.30;;
28028;SDS011;15345;59.364;18.016;2023-06-19T00:26:41;22.52;;;18.60;;
28028;SDS011;15345;59.364;18.016;2023-06-19T00:28:01;20.63;;;17.50;;
28028;SDS011;15345;59.364;18.016;2023-06-19T00:29:20;22.35;;;18.48;;
28028;SDS011;15345;59.364;18.016;2023-06-19T00:30:40;17.77;;;15.93;;
28028;SDS011;15345;59.364;18.016;2023-06-19T00:31:59;20.58;;;18.33;;
28028;SDS011;15345;59.364;18.016;2023-06-19T00:33:18;20.08;;;18.00;;
28028;SDS011;15345;59.364;18.016;2023-06-19T00:34:37;25.58;;;17.70;;
28028;SDS011;15345;59.364;18.016;2023-06-19T00:35:56;21.08;;;17.23;;
28028;SDS011;15345;59.364;18.016;2023-06-19T00:37:15;21.55;;;17.67;;
28028;SDS011;15345;59.364;18.016;2023-06-19T00:38:33;18.40;;;16.48;;
28028;SDS011;15345;59.364;18.016;2023-06-19T00:39:52;18.70;;;16.80;;
28028;SDS011;15345;59.364;18.016;2023-06-19T00:41:11;17.67;;;15.77;;
28028;SDS011;15345;59.364;18.016;2023-06-19T00:42:30;19.05;;;17.05;;
28028;SDS011;15345;59.364;18.016;2023-06-19T00:43:49;22.70;;;17.50;;
28028;SDS011;15345;59.364;18.016;2023-06-19T00:45:10;20.73;;;18.17;;
28028;SDS011;15345;59.364;18.016;2023-06-19T00:46:29;19.92;;;17.73;;
28028;SDS011;15345;59.364;18.016;2023-06-19T00:47:49;19.45;;;17.30;;
28028;SDS011;15345;59.364;18.016;2023-06-19T00:49:08;20.85;;;17.17;;
28028;SDS011;15345;59.364;18.016;2023-06-19T00:50:28;20.02;;;16.88;;
28028;SDS011;15345;59.364;18.016;2023-06-19T00:51:47;18.88;;;16.88;;
28028;SDS011;15345;59.364;18.016;2023-06-19T00:53:06;20.23;;;17.83;;
28028;SDS011;15345;59.364;18.016;2023-06-19T00:54:26;20.55;;;18.40;;
28028;SDS011;15345;59.364;18.016;2023-06-19T00:55:46;19.92;;;17.77;;
28028;SDS011;15345;59.364;18.016;2023-06-19T00:57:07;18.08;;;15.93;;
28028;SDS011;15345;59.364;18.016;2023-06-19T00:58:26;17.42;;;15.75;;
28028;SDS011;15345;59.364;18.016;2023-06-19T00:59:45;21.00;;;16.63;;
28028;SDS011;15345;59.364;18.016;2023-06-19T01:01:04;19.50;;;16.23;;
28028;SDS011;15345;59.364;18.016;2023-06-19T01:02:24;18.88;;;16.85;;
28028;SDS011;15345;59.364;18.016;2023-06-19T01:03:43;18.20;;;16.40;;
28028;SDS011;15345;59.364;18.016;2023-06-19T01:05:02;18.38;;;16.27;;
28028;SDS011;15345;59.364;18.016;2023-06-19T01:06:25;18.33;;;16.40;;
28028;SDS011;15345;59.364;18.016;2023-06-19T01:09:35;18.73;;;16.25;;
28028;SDS011;15345;59.364;18.016;2023-06-19T01:10:57;18.05;;;16.25;;
28028;SDS011;15345;59.364;18.016;2023-06-19T01:12:18;17.48;;;15.60;;
28028;SDS011;15345;59.364;18.016;2023-06-19T01:13:41;17.77;;;15.88;;
28028;SDS011;15345;59.364;18.016;2023-06-19T01:15:03;17.73;;;15.93;;
28028;SDS011;15345;59.364;18.016;2023-06-19T01:16:25;18.42;;;16.42;;
28028;SDS011;15345;59.364;18.016;2023-06-19T01:17:45;17.88;;;16.08;;
28028;SDS011;15345;59.364;18.016;2023-06-19T01:19:05;18.00;;;16.30;;
28028;SDS011;15345;59.364;18.016;2023-06-19T01:20:28;18.20;;;15.82;;
28028;SDS011;15345;59.364;18.016;2023-06-19T01:21:48;17.67;;;15.98;;
28028;SDS011;15345;59.364;18.016;2023-06-19T01:23:10;16.35;;;14.75;;
28028;SDS011;15345;59.364;18.016;2023-06-19T01:25:49;15.88;;;14.43;;
28028;SDS011;15345;59.364;18.016;2023-06-19T01:27:08;16.95;;;15.23;;
28028;SDS011;15345;59.364;18.016;2023-06-19T01:28:27;16.55;;;15.10;;
28028;SDS011;15345;59.364;18.016;2023-06-19T01:29:47;17.02;;;15.43;;
28028;SDS011;15345;59.364;18.016;2023-06-19T01:31:10;16.83;;;15.13;;
28028;SDS011;15345;59.364;18.016;2023-06-19T01:34:01;16.55;;;14.95;;
28028;SDS011;15345;59.364;18.016;2023-06-19T01:35:23;16.88;;;15.27;;
28028;SDS011;15345;59.364;18.016;2023-06-19T01:36:44;16.13;;;14.70;;
28028;SDS011;15345;59.364;18.016;2023-06-19T01:38:03;16.45;;;14.95;;
28028;SDS011;15345;59.364;18.016;2023-06-19T01:39:22;16.27;;;14.88;;
28028;SDS011;15345;59.364;18.016;2023-06-19T01:40:42;18.23;;;16.50;;
28028;SDS011;15345;59.364;18.016;2023-06-19T01:42:01;17.88;;;16.38;;
28028;SDS011;15345;59.364;18.016;2023-06-19T01:43:20;18.15;;;16.33;;
28028;SDS011;15345;59.364;18.016;2023-06-19T01:44:39;17.63;;;15.95;;
28028;SDS011;15345;59.364;18.016;2023-06-19T01:45:59;18.50;;;16.70;;
28028;SDS011;15345;59.364;18.016;2023-06-19T01:47:19;18.42;;;16.67;;
28028;SDS011;15345;59.364;18.016;2023-06-19T01:48:39;17.95;;;16.25;;
28028;SDS011;15345;59.364;18.016;2023-06-19T01:49:58;17.80;;;16.10;;
28028;SDS011;15345;59.364;18.016;2023-06-19T01:51:17;17.35;;;15.40;;
28028;SDS011;15345;59.364;18.016;2023-06-19T01:52:36;22.75;;;17.08;;
28028;SDS011;15345;59.364;18.016;2023-06-19T01:53:55;16.67;;;15.18;;
28028;SDS011;15345;59.364;18.016;2023-06-19T01:55:14;16.13;;;14.55;;
28028;SDS011;15345;59.364;18.016;2023-06-19T01:56:33;16.60;;;15.18;;
28028;SDS011;15345;59.364;18.016;2023-06-19T01:57:51;16.00;;;14.60;;
28028;SDS011;15345;59.364;18.016;2023-06-19T01:59:10;16.00;;;14.48;;
28028;SDS011;15345;59.364;18.016;2023-06-19T02:00:29;16.00;;;14.60;;
28028;SDS011;15345;59.364;18.016;2023-06-19T02:01:50;17.25;;;15.75;;
28028;SDS011;15345;59.364;18.016;2023-06-19T02:03:09;17.08;;;15.48;;
28028;SDS011;15345;59.364;18.016;2023-06-19T02:04:28;16.40;;;15.00;;
28028;SDS011;15345;59.364;18.016;2023-06-19T02:05:47;16.58;;;15.05;;
28028;SDS011;15345;59.364;18.016;2023-06-19T02:07:06;16.63;;;14.90;;
28028;SDS011;15345;59.364;18.016;2023-06-19T02:08:25;16.58;;;15.05;;
28028;SDS011;15345;59.364;18.016;2023-06-19T02:09:44;15.52;;;14.02;;
28028;SDS011;15345;59.364;18.016;2023-06-19T02:11:03;14.98;;;13.73;;
28028;SDS011;15345;59.364;18.016;2023-06-19T02:12:22;16.65;;;15.18;;
28028;SDS011;15345;59.364;18.016;2023-06-19T02:13:41;16.20;;;14.52;;
28028;SDS011;15345;59.364;18.016;2023-06-19T02:15:00;15.07;;;13.85;;
28028;SDS011;15345;59.364;18.016;2023-06-19T02:16:19;16.33;;;14.52;;
28028;SDS011;15345;59.364;18.016;2023-06-19T02:17:38;14.82;;;13.63;;
28028;SDS011;15345;59.364;18.016;2023-06-19T02:18:57;14.50;;;13.40;;
28028;SDS011;15345;59.364;18.016;2023-06-19T02:20:16;14.63;;;13.23;;
28028;SDS011;15345;59.364;18.016;2023-06-19T02:21:35;14.75;;;13.35;;
28028;SDS011;15345;59.364;18.016;2023-06-19T02:22:54;14.48;;;13.48;;
28028;SDS011;15345;59.364;18.016;2023-06-19T02:24:13;13.82;;;12.82;;
28028;SDS011;15345;59.364;18.016;2023-06-19T02:25:32;14.73;;;13.38;;
28028;SDS011;15345;59.364;18.016;2023-06-19T02:26:53;15.63;;;14.20;;
28028;SDS011;15345;59.364;18.016;2023-06-19T02:28:12;13.88;;;12.73;;
28028;SDS011;15345;59.364;18.016;2023-06-19T02:29:31;14.43;;;13.32;;
28028;SDS011;15345;59.364;18.016;2023-06-19T02:30:53;14.95;;;13.32;;
28028;SDS011;15345;59.364;18.016;2023-06-19T02:32:13;14.95;;;13.60;;
28028;SDS011;15345;59.364;18.016;2023-06-19T02:33:32;14.75;;;13.35;;
28028;SDS011;15345;59.364;18.016;2023-06-19T02:34:50;14.60;;;13.30;;
28028;SDS011;15345;59.364;18.016;2023-06-19T02:36:10;14.32;;;13.13;;
28028;SDS011;15345;59.364;18.016;2023-06-19T02:37:29;17.30;;;14.13;;
28028;SDS011;15345;59.364;18.016;2023-06-19T02:38:48;15.48;;;14.05;;
28028;SDS011;15345;59.364;18.016;2023-06-19T02:40:07;15.60;;;14.20;;
28028;SDS011;15345;59.364;18.016;2023-06-19T02:41:28;15.85;;;14.35;;
28028;SDS011;15345;59.364;18.016;2023-06-19T02:42:47;15.85;;;14.38;;
28028;SDS011;15345;59.364;18.016;2023-06-19T02:44:05;16.30;;;14.90;;
28028;SDS011;15345;59.364;18.016;2023-06-19T02:45:24;14.68;;;13.38;;
28028;SDS011;15345;59.364;18.016;2023-06-19T02:46:43;14.50;;;13.30;;
28028;SDS011;15345;59.364;18.016;2023-06-19T02:48:02;14.35;;;13.15;;
28028;SDS011;15345;59.364;18.016;2023-06-19T02:49:21;15.50;;;14.27;;
28028;SDS011;15345;59.364;18.016;2023-06-19T02:50:40;14.55;;;13.35;;
28028;SDS011;15345;59.364;18.016;2023-06-19T02:51:59;15.23;;;13.93;;
28028;SDS011;15345;59.364;18.016;2023-06-19T02:53:19;15.55;;;14.15;;
28028;SDS011;15345;59.364;18.016;2023-06-19T02:54:38;15.80;;;14.27;;
28028;SDS011;15345;59.364;18.016;2023-06-19T02:55:57;14.05;;;12.93;;
28028;SDS011;15345;59.364;18.016;2023-06-19T02:57:16;14.75;;;12.95;;
28028;SDS011;15345;59.364;18.016;2023-06-19T02:58:35;14.88;;;13.55;;
28028;SDS011;15345;59.364;18.016;2023-06-19T02:59:55;14.65;;;13.13;;
28028;SDS011;15345;59.364;18.016;2023-06-19T03:01:14;14.30;;;13.00;;
28028;SDS011;15345;59.364;18.016;2023-06-19T03:02:33;15.18;;;13.98;;
28028;SDS011;15345;59.364;18.016;2023-06-19T03:03:52;14.05;;;12.63;;
28028;SDS011;15345;59.364;18.016;2023-06-19T03:05:12;14.45;;;13.35;;
28028;SDS011;15345;59.364;18.016;2023-06-19T03:06:33;14.48;;;13.07;;
28028;SDS011;15345;59.364;18.016;2023-06-19T03:07:58;15.88;;;13.02;;
28028;SDS011;15345;59.364;18.016;2023-06-19T03:09:17;14.10;;;12.70;;
28028;SDS011;15345;59.364;18.016;2023-06-19T03:10:36;14.25;;;12.85;;
28028;SDS011;15345;59.364;18.016;2023-06-19T03:11:55;14.13;;;12.82;;
28028;SDS011;15345;59.364;18.016;2023-06-19T03:13:14;13.93;;;12.82;;
28028;SDS011;15345;59.364;18.016;2023-06-19T03:14:33;14.73;;;13.32;;
28028;SDS011;15345;59.364;18.016;2023-06-19T03:15:52;14.77;;;13.10;;
28028;SDS011;15345;59.364;18.016;2023-06-19T03:17:12;13.20;;;12.02;;
28028;SDS011;15345;59.364;18.016;2023-06-19T03:18:31;12.43;;;11.27;;
28028;SDS011;15345;59.364;18.016;2023-06-19T03:19:50;13.52;;;11.63;;
28028;SDS011;15345;59.364;18.016;2023-06-19T03:21:09;13.25;;;12.05;;
28028;SDS011;15345;59.364;18.016;2023-06-19T03:22:28;13.52;;;12.50;;
28028;SDS011;15345;59.364;18.016;2023-06-19T03:23:47;13.45;;;12.35;;
28028;SDS011;15345;59.364;18.016;2023-06-19T03:25:06;13.02;;;11.77;;
28028;SDS011;15345;59.364;18.016;2023-06-19T03:26:26;14.60;;;12.30;;
28028;SDS011;15345;59.364;18.016;2023-06-19T03:27:45;13.23;;;12.05;;
28028;SDS011;15345;59.364;18.016;2023-06-19T03:29:03;12.40;;;11.30;;
28028;SDS011;15345;59.364;18.016;2023-06-19T03:30:22;12.77;;;11.77;;
28028;SDS011;15345;59.364;18.016;2023-06-19T03:31:41;13.02;;;11.82;;
28028;SDS011;15345;59.364;18.016;2023-06-19T03:33:00;13.10;;;12.00;;
28028;SDS011;15345;59.364;18.016;2023-06-19T03:34:19;14.63;;;11.77;;
28028;SDS011;15345;59.364;18.016;2023-06-19T03:35:38;12.88;;;11.57;;
28028;SDS011;15345;59.364;18.016;2023-06-19T03:36:57;13.13;;;11.93;;
28028;SDS011;15345;59.364;18.016;2023-06-19T03:38:16;13.02;;;12.00;;
28028;SDS011;15345;59.364;18.016;2023-06-19T03:39:35;13.73;;;11.95;;
28028;SDS011;15345;59.364;18.016;2023-06-19T03:40:54;16.90;;;11.77;;
28028;SDS011;15345;59.364;18.016;2023-06-19T03:42:14;12.32;;;11.32;;
28028;SDS011;15345;59.364;18.016;2023-06-19T03:43:33;11.77;;;10.82;;
28028;SDS011;15345;59.364;18.016;2023-06-19T03:44:52;11.80;;;10.85;;
28028;SDS011;15345;59.364;18.016;2023-06-19T03:46:10;11.88;;;10.93;;
28028;SDS011;15345;59.364;18.016;2023-06-19T03:47:29;12.77;;;11.57;;
28028;SDS011;15345;59.364;18.016;2023-06-19T03:48:48;12.02;;;11.02;;
28028;SDS011;15345;59.364;18.016;2023-06-19T03:50:07;12.05;;;11.02;;
28028;SDS011;15345;59.364;18.016;2023-06-19T03:51:28;11.73;;;10.73;;
28028;SDS011;15345;59.364;18.016;2023-06-19T03:52:47;12.98;;;11.20;;
28028;SDS011;15345;59.364;18.016;2023-06-19T03:54:06;13.00;;;11.77;;
28028;SDS011;15345;59.364;18.016;2023-06-19T03:55:25;11.80;;;10.70;;
28028;SDS011;15345;59.364;18.016;2023-06-19T03:56:44;13.02;;;11.68;;
28028;SDS011;15345;59.364;18.016;2023-06-19T03:58:03;11.40;;;10.40;;
28028;SDS011;15345;59.364;18.016;2023-06-19T03:59:21;11.82;;;10.82;;
28028;SDS011;15345;59.364;18.016;2023-06-19T04:00:40;12.38;;;11.18;;
28028;SDS011;15345;59.364;18.016;2023-06-19T04:01:59;13.02;;;11.70;;
28028;SDS011;15345;59.364;18.016;2023-06-19T04:03:18;12.73;;;11.63;;
28028;SDS011;15345;59.364;18.016;2023-06-19T04:04:39;12.10;;;10.90;;
28028;SDS011;15345;59.364;18.016;2023-06-19T04:05:57;12.68;;;11.45;;
28028;SDS011;15345;59.364;18.016;2023-06-19T04:07:16;12.98;;;11.88;;
28028;SDS011;15345;59.364;18.016;2023-06-19T04:08:35;12.68;;;11.50;;
28028;SDS011;15345;59.364;18.016;2023-06-19T04:09:54;11.00;;;10.07;;
28028;SDS011;15345;59.364;18.016;2023-06-19T04:11:13;12.68;;;11.48;;
28028;SDS011;15345;59.364;18.016;2023-06-19T04:12:33;11.98;;;10.77;;
28028;SDS011;15345;59.364;18.016;2023-06-19T04:13:52;11.85;;;10.65;;
28028;SDS011;15345;59.364;18.016;2023-06-19T04:15:11;13.93;;;11.82;;
28028;SDS011;15345;59.364;18.016;2023-06-19T04:16:29;12.20;;;11.30;;
28028;SDS011;15345;59.364;18.016;2023-06-19T04:17:48;12.50;;;11.43;;
28028;SDS011;15345;59.364;18.016;2023-06-19T04:19:07;12.50;;;11.43;;
28028;SDS011;15345;59.364;18.016;2023-06-19T04:20:26;13.10;;;11.90;;
28028;SDS011;15345;59.364;18.016;2023-06-19T04:21:45;12.85;;;11.85;;
28028;SDS011;15345;59.364;18.016;2023-06-19T04:23:04;14.80;;;11.93;;
28028;SDS011;15345;59.364;18.016;2023-06-19T04:24:23;13.75;;;12.50;;
28028;SDS011;15345;59.364;18.016;2023-06-19T04:25:42;13.45;;;12.30;;
28028;SDS011;15345;59.364;18.016;2023-06-19T04:27:01;13.60;;;11.60;;
28028;SDS011;15345;59.364;18.016;2023-06-19T04:28:20;14.25;;;12.38;;
28028;SDS011;15345;59.364;18.016;2023-06-19T04:29:39;13.70;;;12.48;;
28028;SDS011;15345;59.364;18.016;2023-06-19T04:30:58;14.75;;;12.68;;
28028;SDS011;15345;59.364;18.016;2023-06-19T04:32:20;16.48;;;11.95;;
28028;SDS011;15345;59.364;18.016;2023-06-19T04:33:39;17.38;;;12.05;;
28028;SDS011;15345;59.364;18.016;2023-06-19T04:34:59;14.00;;;12.60;;
28028;SDS011;15345;59.364;18.016;2023-06-19T04:36:18;13.40;;;12.27;;
28028;SDS011;15345;59.364;18.016;2023-06-19T04:37:36;14.20;;;12.43;;
28028;SDS011;15345;59.364;18.016;2023-06-19T04:38:55;14.93;;;13.27;;
28028;SDS011;15345;59.364;18.016;2023-06-19T04:40:14;14.38;;;13.05;;
28028;SDS011;15345;59.364;18.016;2023-06-19T04:41:34;16.27;;;13.35;;
28028;SDS011;15345;59.364;18.016;2023-06-19T04:42:57;14.68;;;13.10;;
28028;SDS011;15345;59.364;18.016;2023-06-19T04:44:16;14.55;;;13.25;;
28028;SDS011;15345;59.364;18.016;2023-06-19T04:45:35;15.23;;;13.60;;
28028;SDS011;15345;59.364;18.016;2023-06-19T04:46:54;13.95;;;12.60;;
28028;SDS011;15345;59.364;18.016;2023-06-19T04:48:19;14.50;;;13.00;;
28028;SDS011;15345;59.364;18.016;2023-06-19T04:49:38;14.02;;;12.63;;
28028;SDS011;15345;59.364;18.016;2023-06-19T04:50:57;15.52;;;13.88;;
28028;SDS011;15345;59.364;18.016;2023-06-19T04:52:19;19.15;;;13.75;;
28028;SDS011;15345;59.364;18.016;2023-06-19T04:53:38;14.13;;;12.80;;
28028;SDS011;15345;59.364;18.016;2023-06-19T04:54:57;14.27;;;12.93;;
28028;SDS011;15345;59.364;18.016;2023-06-19T04:56:17;14.85;;;13.35;;
28028;SDS011;15345;59.364;18.016;2023-06-19T04:57:36;13.50;;;12.18;;
28028;SDS011;15345;59.364;18.016;2023-06-19T04:58:58;14.57;;;13.27;;
28028;SDS011;15345;59.364;18.016;2023-06-19T05:00:18;14.48;;;13.02;;
28028;SDS011;15345;59.364;18.016;2023-06-19T05:01:42;15.23;;;13.82;;
28028;SDS011;15345;59.364;18.016;2023-06-19T05:03:01;17.25;;;14.20;;
28028;SDS011;15345;59.364;18.016;2023-06-19T05:04:20;15.70;;;13.25;;
28028;SDS011;15345;59.364;18.016;2023-06-19T05:05:39;15.20;;;13.35;;
28028;SDS011;15345;59.364;18.016;2023-06-19T05:06:58;15.45;;;13.85;;
28028;SDS011;15345;59.364;18.016;2023-06-19T05:08:17;15.25;;;13.85;;
28028;SDS011;15345;59.364;18.016;2023-06-19T05:09:36;14.63;;;13.10;;
28028;SDS011;15345;59.364;18.016;2023-06-19T05:10:55;15.07;;;13.60;;
28028;SDS011;15345;59.364;18.016;2023-06-19T05:12:16;15.82;;;13.55;;
28028;SDS011;15345;59.364;18.016;2023-06-19T05:13:35;15.40;;;13.40;;
28028;SDS011;15345;59.364;18.016;2023-06-19T05:14:54;15.32;;;13.85;;
28028;SDS011;15345;59.364;18.016;2023-06-19T05:16:13;14.77;;;13.27;;
28028;SDS011;15345;59.364;18.016;2023-06-19T05:17:34;15.38;;;13.60;;
28028;SDS011;15345;59.364;18.016;2023-06-19T05:18:53;15.70;;;13.63;;
28028;SDS011;15345;59.364;18.016;2023-06-19T05:20:12;17.42;;;14.13;;
28028;SDS011;15345;59.364;18.016;2023-06-19T05:21:31;14.63;;;13.38;;
28028;SDS011;15345;59.364;18.016;2023-06-19T05:22:50;16.48;;;14.75;;
28028;SDS011;15345;59.364;18.016;2023-06-19T05:24:09;16.20;;;14.52;;
28028;SDS011;15345;59.364;18.016;2023-06-19T05:25:28;15.75;;;14.27;;
28028;SDS011;15345;59.364;18.016;2023-06-19T05:26:47;15.35;;;13.68;;
28028;SDS011;15345;59.364;18.016;2023-06-19T05:28:06;16.30;;;13.90;;
28028;SDS011;15345;59.364;18.016;2023-06-19T05:29:25;20.15;;;15.13;;
28028;SDS011;15345;59.364;18.016;2023-06-19T05:30:44;15.27;;;13.57;;
28028;SDS011;15345;59.364;18.016;2023-06-19T05:32:03;16.17;;;13.88;;
28028;SDS011;15345;59.364;18.016;2023-06-19T05:33:22;15.93;;;14.00;;
28028;SDS011;15345;59.364;18.016;2023-06-19T05:34:42;15.98;;;14.23;;
28028;SDS011;15345;59.364;18.016;2023-06-19T05:36:01;15.77;;;14.23;;
28028;SDS011;15345;59.364;18.016;2023-06-19T05:37:20;15.35;;;13.85;;
28028;SDS011;15345;59.364;18.016;2023-06-19T05:38:40;15.95;;;14.35;;
28028;SDS011;15345;59.364;18.016;2023-06-19T05:40:00;16.50;;;14.82;;
28028;SDS011;15345;59.364;18.016;2023-06-19T05:41:19;17.35;;;13.77;;
28028;SDS011;15345;59.364;18.016;2023-06-19T05:42:39;17.95;;;15.52;;
28028;SDS011;15345;59.364;18.016;2023-06-19T05:43:58;15.77;;;14.23;;
28028;SDS011;15345;59.364;18.016;2023-06-19T05:45:17;15.65;;;14.15;;
28028;SDS011;15345;59.364;18.016;2023-06-19T05:46:36;15.85;;;14.30;;
28028;SDS011;15345;59.364;18.016;2023-06-19T05:47:55;15.77;;;14.13;;
28028;SDS011;15345;59.364;18.016;2023-06-19T05:49:14;15.65;;;14.07;;
28028;SDS011;15345;59.364;18.016;2023-06-19T05:50:33;16.80;;;14.23;;
28028;SDS011;15345;59.364;18.016;2023-06-19T05:51:52;17.73;;;14.60;;
28028;SDS011;15345;59.364;18.016;2023-06-19T05:53:11;16.55;;;14.10;;
28028;SDS011;15345;59.364;18.016;2023-06-19T05:54:30;16.90;;;13.73;;
28028;SDS011;15345;59.364;18.016;2023-06-19T05:55:49;19.98;;;14.82;;
28028;SDS011;15345;59.364;18.016;2023-06-19T05:57:07;16.60;;;14.75;;
28028;SDS011;15345;59.364;18.016;2023-06-19T05:58:27;18.52;;;15.13;;
28028;SDS011;15345;59.364;18.016;2023-06-19T05:59:46;20.73;;;15.63;;
28028;SDS011;15345;59.364;18.016;2023-06-19T06:01:05;15.55;;;14.05;;
28028;SDS011;15345;59.364;18.016;2023-06-19T06:02:25;16.90;;;15.10;;
28028;SDS011;15345;59.364;18.016;2023-06-19T06:03:45;17.25;;;15.50;;
28028;SDS011;15345;59.364;18.016;2023-06-19T06:05:04;16.48;;;14.93;;
28028;SDS011;15345;59.364;18.016;2023-06-19T06:06:23;18.75;;;15.90;;
28028;SDS011;15345;59.364;18.016;2023-06-19T06:07:42;18.67;;;14.80;;
28028;SDS011;15345;59.364;18.016;2023-06-19T06:09:00;18.65;;;14.93;;
28028;SDS011;15345;59.364;18.016;2023-06-19T06:10:23;16.73;;;14.65;;
28028;SDS011;15345;59.364;18.016;2023-06-19T06:11:42;16.88;;;14.95;;
28028;SDS011;15345;59.364;18.016;2023-06-19T06:13:01;16.27;;;14.70;;
28028;SDS011;15345;59.364;18.016;2023-06-19T06:14:20;16.30;;;14.57;;
28028;SDS011;15345;59.364;18.016;2023-06-19T06:15:39;17.42;;;15.43;;
28028;SDS011;15345;59.364;18.016;2023-06-19T06:16:58;15.38;;;13.82;;
28028;SDS011;15345;59.364;18.016;2023-06-19T06:18:18;18.20;;;16.30;;
28028;SDS011;15345;59.364;18.016;2023-06-19T06:19:37;17.00;;;15.23;;
28028;SDS011;15345;59.364;18.016;2023-06-19T06:20:57;17.45;;;14.25;;
28028;SDS011;15345;59.364;18.016;2023-06-19T06:22:17;17.27;;;15.73;;
28028;SDS011;15345;59.364;18.016;2023-06-19T06:23:37;16.85;;;15.25;;
28028;SDS011;15345;59.364;18.016;2023-06-19T06:24:56;16.85;;;14.43;;
28028;SDS011;15345;59.364;18.016;2023-06-19T06:26:15;18.02;;;15.35;;
28028;SDS011;15345;59.364;18.016;2023-06-19T06:27:33;16.10;;;14.52;;
28028;SDS011;15345;59.364;18.016;2023-06-19T06:28:53;15.15;;;13.55;;
28028;SDS011;15345;59.364;18.016;2023-06-19T06:30:12;16.52;;;14.73;;
28028;SDS011;15345;59.364;18.016;2023-06-19T06:31:31;18.65;;;14.65;;
28028;SDS011;15345;59.364;18.016;2023-06-19T06:32:50;14.85;;;13.15;;
28028;SDS011;15345;59.364;18.016;2023-06-19T06:34:10;16.23;;;14.35;;
28028;SDS011;15345;59.364;18.016;2023-06-19T06:35:28;15.10;;;13.65;;
28028;SDS011;15345;59.364;18.016;2023-06-19T06:36:47;14.38;;;12.98;;
28028;SDS011;15345;59.364;18.016;2023-06-19T06:38:06;14.95;;;13.57;;
28028;SDS011;15345;59.364;18.016;2023-06-19T06:39:26;14.25;;;12.95;;
28028;SDS011;15345;59.364;18.016;2023-06-19T06:40:45;15.38;;;13.75;;
28028;SDS011;15345;59.364;18.016;2023-06-19T06:42:04;13.85;;;12.68;;
28028;SDS011;15345;59.364;18.016;2023-06-19T06:43:23;14.40;;;13.10;;
28028;SDS011;15345;59.364;18.016;2023-06-19T06:44:42;15.30;;;13.05;;
28028;SDS011;15345;59.364;18.016;2023-06-19T06:46:01;14.68;;;13.27;;
28028;SDS011;15345;59.364;18.016;2023-06-19T06:47:20;13.95;;;12.68;;
28028;SDS011;15345;59.364;18.016;2023-06-19T06:48:39;13.77;;;12.35;;
28028;SDS011;15345;59.364;18.016;2023-06-19T06:49:58;16.38;;;13.35;;
28028;SDS011;15345;59.364;18.016;2023-06-19T06:51:17;15.10;;;13.57;;
28028;SDS011;15345;59.364;18.016;2023-06-19T06:52:36;18.23;;;14.27;;
28028;SDS011;15345;59.364;18.016;2023-06-19T06:53:55;17.17;;;14.00;;
28028;SDS011;15345;59.364;18.016;2023-06-19T06:55:14;14.15;;;12.88;;
28028;SDS011;15345;59.364;18.016;2023-06-19T06:56:33;14.88;;;13.10;;
28028;SDS011;15345;59.364;18.016;2023-06-19T06:57:52;14.82;;;13.52;;
28028;SDS011;15345;59.364;18.016;2023-06-19T06:59:11;15.90;;;13.93;;
28028;SDS011;15345;59.364;18.016;2023-06-19T07:00:30;17.67;;;13.88;;
28028;SDS011;15345;59.364;18.016;2023-06-19T07:01:49;14.68;;;12.90;;
28028;SDS011;15345;59.364;18.016;2023-06-19T07:03:08;14.70;;;13.10;;
28028;SDS011;15345;59.364;18.016;2023-06-19T07:04:27;14.40;;;12.40;;
28028;SDS011;15345;59.364;18.016;2023-06-19T07:05:47;14.25;;;12.73;;
28028;SDS011;15345;59.364;18.016;2023-06-19T07:07:06;12.90;;;11.70;;
28028;SDS011;15345;59.364;18.016;2023-06-19T07:08:25;13.55;;;12.35;;
28028;SDS011;15345;59.364;18.016;2023-06-19T07:09:44;13.52;;;12.32;;
28028;SDS011;15345;59.364;18.016;2023-06-19T07:11:03;12.48;;;11.48;;
28028;SDS011;15345;59.364;18.016;2023-06-19T07:12:22;12.80;;;11.60;;
28028;SDS011;15345;59.364;18.016;2023-06-19T07:13:41;12.38;;;11.07;;
28028;SDS011;15345;59.364;18.016;2023-06-19T07:15:00;13.85;;;11.60;;
28028;SDS011;15345;59.364;18.016;2023-06-19T07:16:20;12.32;;;11.25;;
28028;SDS011;15345;59.364;18.016;2023-06-19T07:17:39;12.13;;;11.02;;
28028;SDS011;15345;59.364;18.016;2023-06-19T07:18:58;11.77;;;10.60;;
28028;SDS011;15345;59.364;18.016;2023-06-19T07:20:17;12.63;;;11.32;;
28028;SDS011;15345;59.364;18.016;2023-06-19T07:21:35;14.32;;;12.95;;
28028;SDS011;15345;59.364;18.016;2023-06-19T07:22:54;13.90;;;11.20;;
28028;SDS011;15345;59.364;18.016;2023-06-19T07:24:13;12.07;;;10.80;;
28028;SDS011;15345;59.364;18.016;2023-06-19T07:25:33;10.93;;;10.02;;
28028;SDS011;15345;59.364;18.016;2023-06-19T07:26:52;13.10;;;10.50;;
28028;SDS011;15345;59.364;18.016;2023-06-19T07:28:12;11.25;;;10.25;;
28028;SDS011;15345;59.364;18.016;2023-06-19T07:29:31;10.75;;;9.63;;
28028;SDS011;15345;59.364;18.016;2023-06-19T07:30:51;10.35;;;9.27;;
28028;SDS011;15345;59.364;18.016;2023-06-19T07:32:11;10.48;;;9.50;;
28028;SDS011;15345;59.364;18.016;2023-06-19T07:33:30;10.63;;;9.52;;
28028;SDS011;15345;59.364;18.016;2023-06-19T07:34:48;11.93;;;9.68;;
28028;SDS011;15345;59.364;18.016;2023-06-19T07:36:07;10.18;;;8.98;;
28028;SDS011;15345;59.364;18.016;2023-06-19T07:37:32;9.85;;;8.95;;
28028;SDS011;15345;59.364;18.016;2023-06-19T07:38:51;10.05;;;9.35;;
28028;SDS011;15345;59.364;18.016;2023-06-19T07:40:10;10.25;;;9.32;;
28028;SDS011;15345;59.364;18.016;2023-06-19T07:41:29;10.75;;;9.85;;